createdAt,value
2019-03-12T00:03:12.274Z,2.20
2019-03-12T00:08:41.807Z,2.10
2019-03-12T00:14:11.266Z,2.10
2019-03-12T00:19:40.604Z,2.10
2019-03-12T00:25:10.198Z,2.10
2019-03-12T00:30:39.710Z,2.10
2019-03-12T00:36:09.085Z,2.10
2019-03-12T00:41:38.450Z,2.10
2019-03-12T00:47:08.339Z,2.10
2019-03-12T00:52:38.479Z,2.10
2019-03-12T00:58:07.963Z,2.10
2019-03-12T01:03:37.347Z,2.10
2019-03-12T01:09:08.745Z,2.10
2019-03-12T01:14:38.114Z,2.10
2019-03-12T01:20:15.702Z,2.10
2019-03-12T01:25:45.052Z,2.00
2019-03-12T01:31:14.410Z,2.00
2019-03-12T01:36:43.883Z,1.90
2019-03-12T01:42:13.314Z,1.90
2019-03-12T01:47:42.814Z,1.90
2019-03-12T01:53:12.222Z,1.90
2019-03-12T01:58:41.821Z,1.90
2019-03-12T02:04:11.193Z,1.80
2019-03-12T02:09:42.120Z,2.00
2019-03-12T02:15:16.539Z,1.80
2019-03-12T02:20:45.970Z,1.80
2019-03-12T02:26:15.494Z,1.80
2019-03-12T02:31:45.016Z,1.90
2019-03-12T02:37:14.574Z,1.90
2019-03-12T02:42:44.103Z,1.90
2019-03-12T02:48:13.560Z,1.90
2019-03-12T02:53:42.942Z,1.80
2019-03-12T02:59:12.453Z,1.80
2019-03-12T03:04:41.876Z,1.80
2019-03-12T03:10:12.232Z,1.80
2019-03-12T03:15:47.917Z,1.80
2019-03-12T03:21:29.483Z,1.70
2019-03-12T03:26:58.812Z,1.80
2019-03-12T03:32:29.117Z,1.70
2019-03-12T03:37:58.423Z,1.70
2019-03-12T03:43:27.753Z,1.70
2019-03-12T03:48:57.147Z,1.60
2019-03-12T03:54:26.491Z,1.60
2019-03-12T03:59:55.934Z,1.60
2019-03-12T04:05:25.268Z,1.60
2019-03-12T04:10:54.606Z,1.60
2019-03-12T04:16:23.935Z,1.60
2019-03-12T04:21:53.703Z,1.60
2019-03-12T04:27:23.010Z,1.50
2019-03-12T04:32:52.340Z,1.60
2019-03-12T04:38:21.680Z,1.60
2019-03-12T04:43:51.058Z,1.60
2019-03-12T04:49:22.378Z,1.60
2019-03-12T04:54:51.903Z,1.60
2019-03-12T05:00:21.713Z,1.60
2019-03-12T05:05:51.075Z,1.70
2019-03-12T05:11:20.432Z,1.70
2019-03-12T05:16:50.089Z,1.70
2019-03-12T05:22:19.800Z,1.60
2019-03-12T05:27:49.207Z,1.70
2019-03-12T05:33:18.612Z,1.70
2019-03-12T05:38:47.964Z,1.70
2019-03-12T05:44:18.073Z,1.70
2019-03-12T05:49:48.068Z,1.70
2019-03-12T05:55:18.627Z,1.80
2019-03-12T06:00:49.466Z,1.80
2019-03-12T06:06:20.472Z,1.80
2019-03-12T06:11:49.842Z,1.80
2019-03-12T06:17:19.281Z,1.80
2019-03-12T06:22:48.577Z,1.90
2019-03-12T06:28:17.995Z,1.90
2019-03-12T06:33:54.927Z,2.00
2019-03-12T06:39:34.550Z,2.00
2019-03-12T06:45:07.966Z,2.10
2019-03-12T06:50:45.009Z,2.20
2019-03-12T06:56:16.092Z,2.30
2019-03-12T07:01:47.209Z,2.40
2019-03-12T07:07:18.293Z,2.40
2019-03-12T07:12:49.230Z,2.50
2019-03-12T07:18:26.279Z,2.60
2019-03-12T07:24:15.211Z,2.70
2019-03-12T07:29:55.348Z,2.90
2019-03-12T07:35:32.139Z,3.20
2019-03-12T07:41:08.778Z,3.40
2019-03-12T07:46:42.721Z,3.40
2019-03-12T07:52:14.026Z,3.30
2019-03-12T07:58:01.210Z,3.30
2019-03-12T08:03:48.312Z,3.30
2019-03-12T08:09:35.208Z,3.50
2019-03-12T08:15:22.535Z,3.60
2019-03-12T08:20:55.042Z,3.70
2019-03-12T08:26:28.875Z,3.70
2019-03-12T08:32:11.842Z,3.80
2019-03-12T08:37:58.142Z,4.00
2019-03-12T08:43:38.079Z,4.30
2019-03-12T08:49:12.086Z,4.50
2019-03-12T08:54:54.405Z,4.50
2019-03-12T09:00:24.255Z,4.50
2019-03-12T09:06:10.315Z,4.60
2019-03-12T09:11:44.208Z,4.90
2019-03-12T09:17:31.363Z,5.20
2019-03-12T09:23:08.390Z,5.50
2019-03-12T09:28:39.427Z,5.60
2019-03-12T09:34:19.456Z,5.40
2019-03-12T09:40:08.606Z,4.90
2019-03-12T09:45:39.646Z,4.80
2019-03-12T09:51:19.757Z,4.90
2019-03-12T09:57:09.841Z,4.90
2019-03-12T10:02:44.199Z,4.70
2019-03-12T10:08:18.138Z,4.70
2019-03-12T10:13:54.960Z,5.00
2019-03-12T10:19:28.913Z,5.30
2019-03-12T10:25:10.030Z,5.70
2019-03-12T10:30:49.921Z,5.70
2019-03-12T10:36:21.129Z,6.00
2019-03-12T10:41:52.135Z,5.80
2019-03-12T10:47:23.079Z,5.50
2019-03-12T10:52:52.469Z,5.40
2019-03-12T10:58:21.783Z,5.30
2019-03-12T11:03:51.090Z,5.30
2019-03-12T11:09:21.131Z,5.80
2019-03-12T11:14:51.046Z,6.10
2019-03-12T11:20:26.088Z,6.20
2019-03-12T11:25:55.623Z,6.40
2019-03-12T11:31:24.961Z,6.30
2019-03-12T11:36:54.372Z,6.20
2019-03-12T11:42:23.671Z,6.60
2019-03-12T11:47:53.063Z,6.80
2019-03-12T11:53:22.457Z,7.00
2019-03-12T11:58:51.901Z,7.20
2019-03-12T12:04:21.424Z,7.50
2019-03-12T12:09:50.806Z,7.90
2019-03-12T12:15:20.192Z,7.90
2019-03-12T12:20:49.734Z,8.00
2019-03-12T12:26:19.174Z,7.90
2019-03-12T12:31:48.640Z,8.20
2019-03-12T12:37:17.969Z,8.10
2019-03-12T12:42:47.319Z,8.30
2019-03-12T12:48:16.979Z,8.60
2019-03-12T12:53:46.498Z,8.80
2019-03-12T12:59:16.045Z,8.90
2019-03-12T13:04:45.475Z,9.10
2019-03-12T13:10:28.344Z,9.20
2019-03-12T13:15:57.711Z,9.60
2019-03-12T13:21:27.210Z,11.80
2019-03-12T13:26:56.485Z,12.70
2019-03-12T13:32:25.915Z,13.10
2019-03-12T13:37:55.408Z,12.50
2019-03-12T13:43:25.852Z,11.60
2019-03-12T13:48:55.430Z,11.70
2019-03-12T13:54:24.977Z,12.40
2019-03-12T13:59:54.318Z,13.50
2019-03-12T14:05:23.819Z,14.70
2019-03-12T14:10:53.227Z,16.00
2019-03-12T14:16:22.812Z,17.30
2019-03-12T14:21:52.146Z,19.30
2019-03-12T14:27:21.694Z,20.70
2019-03-12T14:32:51.040Z,21.70
2019-03-12T14:38:20.749Z,21.90
2019-03-12T14:43:50.311Z,21.30
2019-03-12T14:49:19.726Z,22.60
2019-03-12T14:54:49.228Z,23.10
2019-03-12T15:00:26.296Z,23.50
2019-03-12T15:05:55.615Z,24.20
2019-03-12T15:11:25.980Z,24.50
2019-03-12T15:16:55.344Z,25.00
2019-03-12T15:22:24.674Z,24.40
2019-03-12T15:27:54.132Z,22.80
2019-03-12T15:33:23.448Z,21.40
2019-03-12T15:38:52.995Z,18.50
2019-03-12T15:44:22.320Z,15.90
2019-03-12T15:49:51.680Z,14.20
2019-03-12T15:55:21.214Z,13.30
2019-03-12T16:00:50.694Z,12.60
2019-03-12T16:06:20.086Z,11.90
2019-03-12T16:11:49.484Z,11.60
2019-03-12T16:17:18.947Z,11.20
2019-03-12T16:22:48.344Z,10.80
2019-03-12T16:28:17.883Z,10.40
2019-03-12T16:33:47.186Z,10.10
2019-03-12T16:39:16.613Z,9.70
2019-03-12T16:44:46.026Z,9.50
2019-03-12T16:50:16.772Z,9.20
2019-03-12T16:55:46.284Z,9.10
2019-03-12T17:01:15.797Z,8.90
2019-03-12T17:06:45.162Z,8.70
2019-03-12T17:12:14.591Z,8.50
2019-03-12T17:17:43.980Z,8.20
2019-03-12T17:23:13.615Z,8.00
2019-03-12T17:28:43.104Z,7.70
2019-03-12T17:34:12.713Z,7.50
2019-03-12T17:39:49.708Z,7.30
2019-03-12T17:45:19.304Z,7.10
2019-03-12T17:50:48.815Z,6.90
2019-03-12T17:56:18.447Z,6.70
2019-03-12T18:01:49.623Z,6.60
2019-03-12T18:07:19.196Z,6.40
2019-03-12T18:12:48.969Z,6.30
2019-03-12T18:18:18.405Z,6.10
2019-03-12T18:23:47.788Z,6.00
2019-03-12T18:29:19.301Z,5.90
2019-03-12T18:34:48.779Z,5.80
2019-03-12T18:40:26.799Z,5.70
2019-03-12T18:45:56.260Z,5.60
2019-03-12T18:51:25.719Z,5.60
2019-03-12T18:56:55.281Z,5.60
2019-03-12T19:02:24.679Z,5.50
2019-03-12T19:07:54.311Z,5.50
2019-03-12T19:13:23.820Z,5.40
2019-03-12T19:18:53.456Z,5.40
2019-03-12T19:24:23.055Z,5.30
2019-03-12T19:29:52.388Z,5.30
2019-03-12T19:35:25.656Z,5.20
2019-03-12T19:40:58.264Z,5.10
2019-03-12T19:46:28.772Z,5.00
2019-03-12T19:51:58.232Z,4.90
2019-03-12T19:57:27.852Z,4.80
2019-03-12T20:03:09.992Z,4.80
2019-03-12T20:08:30.069Z,4.80
2019-03-12T20:14:24.109Z,4.80
2019-03-12T20:20:34.648Z,4.80
2019-03-12T20:26:45.150Z,4.80
2019-03-12T20:32:30.718Z,4.80
2019-03-12T20:38:26.847Z,4.70
2019-03-12T20:44:19.161Z,4.70
2019-03-12T20:50:43.670Z,4.60
2019-03-12T20:56:41.457Z,4.60
2019-03-12T21:02:48.828Z,4.60
2019-03-12T21:08:57.598Z,4.50
2019-03-12T21:15:14.316Z,4.40
2019-03-12T21:21:25.586Z,4.30
2019-03-12T21:27:20.874Z,4.30
2019-03-12T21:32:57.856Z,4.40
2019-03-12T21:38:30.019Z,4.40
2019-03-12T21:44:02.755Z,4.50
2019-03-12T21:49:37.285Z,4.50
2019-03-12T21:55:16.174Z,4.50
2019-03-12T22:01:00.346Z,4.60
2019-03-12T22:06:29.750Z,4.70
2019-03-12T22:12:10.711Z,4.80
2019-03-12T22:17:57.901Z,4.90
2019-03-12T22:23:39.669Z,5.00
2019-03-12T22:29:21.151Z,5.10
2019-03-12T22:34:52.628Z,5.20
2019-03-12T22:40:37.266Z,5.20
2019-03-12T22:46:08.160Z,5.30
2019-03-12T22:51:50.449Z,5.40
2019-03-12T22:57:25.805Z,5.40
2019-03-12T23:03:08.630Z,5.50
2019-03-12T23:08:44.830Z,5.50
2019-03-12T23:14:22.650Z,5.60
2019-03-12T23:25:29.016Z,5.60
2019-03-12T23:36:58.156Z,5.60
2019-03-12T23:42:27.537Z,5.60
2019-03-12T23:47:57.812Z,5.60
2019-03-12T23:53:28.154Z,5.60
2019-03-12T23:58:57.474Z,5.70
